sensor_id;sensor_type;location;lat;lon;timestamp;P1;durP1;ratioP1;P2;durP2;ratioP2
77111;SDS011;66064;50.226;14.344;2023-10-09T00:01:40;20.13;;;15.43;;
77111;SDS011;66064;50.226;14.344;2023-10-09T00:04:13;18.00;;;13.80;;
77111;SDS011;66064;50.226;14.344;2023-10-09T00:06:42;19.65;;;14.27;;
77111;SDS011;66064;50.226;14.344;2023-10-09T00:09:10;17.25;;;15.15;;
77111;SDS011;66064;50.226;14.344;2023-10-09T00:11:48;18.60;;;16.10;;
77111;SDS011;66064;50.226;14.344;2023-10-09T00:14:14;20.35;;;16.58;;
77111;SDS011;66064;50.226;14.344;2023-10-09T00:16:44;14.48;;;11.73;;
77111;SDS011;66064;50.226;14.344;2023-10-09T00:19:14;16.92;;;15.23;;
77111;SDS011;66064;50.226;14.344;2023-10-09T00:21:52;15.40;;;13.30;;
77111;SDS011;66064;50.226;14.344;2023-10-09T00:24:21;22.52;;;17.15;;
77111;SDS011;66064;50.226;14.344;2023-10-09T00:26:50;21.80;;;14.95;;
77111;SDS011;66064;50.226;14.344;2023-10-09T00:29:21;17.77;;;15.80;;
77111;SDS011;66064;50.226;14.344;2023-10-09T00:31:51;17.92;;;16.10;;
77111;SDS011;66064;50.226;14.344;2023-10-09T00:34:44;18.90;;;17.15;;
77111;SDS011;66064;50.226;14.344;2023-10-09T00:37:10;17.00;;;15.43;;
77111;SDS011;66064;50.226;14.344;2023-10-09T00:39:57;16.42;;;14.70;;
77111;SDS011;66064;50.226;14.344;2023-10-09T00:42:24;21.77;;;15.73;;
77111;SDS011;66064;50.226;14.344;2023-10-09T00:45:00;14.38;;;13.07;;
77111;SDS011;66064;50.226;14.344;2023-10-09T00:47:33;14.82;;;13.27;;
77111;SDS011;66064;50.226;14.344;2023-10-09T00:50:02;16.35;;;14.77;;
77111;SDS011;66064;50.226;14.344;2023-10-09T00:52:37;15.13;;;13.85;;
77111;SDS011;66064;50.226;14.344;2023-10-09T00:55:15;14.70;;;13.27;;
77111;SDS011;66064;50.226;14.344;2023-10-09T00:57:48;16.27;;;14.48;;
77111;SDS011;66064;50.226;14.344;2023-10-09T01:00:24;15.70;;;13.82;;
77111;SDS011;66064;50.226;14.344;2023-10-09T01:02:59;15.38;;;14.02;;
77111;SDS011;66064;50.226;14.344;2023-10-09T01:08:28;15.27;;;14.02;;
77111;SDS011;66064;50.226;14.344;2023-10-09T01:11:10;15.45;;;14.15;;
77111;SDS011;66064;50.226;14.344;2023-10-09T01:13:44;14.50;;;13.00;;
77111;SDS011;66064;50.226;14.344;2023-10-09T01:16:12;15.13;;;13.52;;
77111;SDS011;66064;50.226;14.344;2023-10-09T01:18:46;14.85;;;13.65;;
77111;SDS011;66064;50.226;14.344;2023-10-09T01:21:17;13.82;;;12.57;;
77111;SDS011;66064;50.226;14.344;2023-10-09T01:23:49;15.93;;;14.32;;
77111;SDS011;66064;50.226;14.344;2023-10-09T01:26:31;13.80;;;12.50;;
77111;SDS011;66064;50.226;14.344;2023-10-09T01:29:19;14.48;;;13.07;;
77111;SDS011;66064;50.226;14.344;2023-10-09T01:31:48;15.48;;;13.98;;
77111;SDS011;66064;50.226;14.344;2023-10-09T01:34:21;13.73;;;12.43;;
77111;SDS011;66064;50.226;14.344;2023-10-09T01:36:53;13.25;;;12.15;;
77111;SDS011;66064;50.226;14.344;2023-10-09T01:39:25;13.85;;;12.45;;
77111;SDS011;66064;50.226;14.344;2023-10-09T01:42:06;15.00;;;13.68;;
77111;SDS011;66064;50.226;14.344;2023-10-09T01:44:33;11.70;;;10.60;;
77111;SDS011;66064;50.226;14.344;2023-10-09T01:47:08;15.98;;;14.68;;
77111;SDS011;66064;50.226;14.344;2023-10-09T01:49:40;11.70;;;9.50;;
77111;SDS011;66064;50.226;14.344;2023-10-09T01:52:09;15.38;;;13.95;;
77111;SDS011;66064;50.226;14.344;2023-10-09T01:54:41;13.27;;;11.88;;
77111;SDS011;66064;50.226;14.344;2023-10-09T01:57:19;14.73;;;12.90;;
77111;SDS011;66064;50.226;14.344;2023-10-09T01:59:49;12.68;;;11.48;;
77111;SDS011;66064;50.226;14.344;2023-10-09T02:02:19;13.60;;;11.18;;
77111;SDS011;66064;50.226;14.344;2023-10-09T02:07:32;14.63;;;13.10;;
77111;SDS011;66064;50.226;14.344;2023-10-09T02:10:06;9.25;;;8.10;;
77111;SDS011;66064;50.226;14.344;2023-10-09T02:12:50;8.63;;;7.68;;
77111;SDS011;66064;50.226;14.344;2023-10-09T02:15:26;13.35;;;12.13;;
77111;SDS011;66064;50.226;14.344;2023-10-09T02:18:26;12.68;;;11.68;;
77111;SDS011;66064;50.226;14.344;2023-10-09T02:23:27;12.82;;;10.93;;
77111;SDS011;66064;50.226;14.344;2023-10-09T02:26:17;11.07;;;8.05;;
77111;SDS011;66064;50.226;14.344;2023-10-09T02:29:13;11.98;;;10.45;;
77111;SDS011;66064;50.226;14.344;2023-10-09T02:31:38;9.65;;;7.80;;
77111;SDS011;66064;50.226;14.344;2023-10-09T02:34:19;12.68;;;11.40;;
77111;SDS011;66064;50.226;14.344;2023-10-09T02:36:49;11.05;;;10.25;;
77111;SDS011;66064;50.226;14.344;2023-10-09T02:39:23;12.15;;;10.68;;
77111;SDS011;66064;50.226;14.344;2023-10-09T02:41:57;17.55;;;14.40;;
77111;SDS011;66064;50.226;14.344;2023-10-09T02:44:32;25.88;;;18.95;;
77111;SDS011;66064;50.226;14.344;2023-10-09T02:47:04;11.63;;;10.40;;
77111;SDS011;66064;50.226;14.344;2023-10-09T02:49:38;14.90;;;13.80;;
77111;SDS011;66064;50.226;14.344;2023-10-09T02:52:05;12.43;;;10.20;;
77111;SDS011;66064;50.226;14.344;2023-10-09T02:54:33;11.88;;;10.98;;
77111;SDS011;66064;50.226;14.344;2023-10-09T02:57:07;11.05;;;9.95;;
77111;SDS011;66064;50.226;14.344;2023-10-09T02:59:34;12.90;;;11.82;;
77111;SDS011;66064;50.226;14.344;2023-10-09T03:02:02;11.18;;;10.18;;
77111;SDS011;66064;50.226;14.344;2023-10-09T03:04:29;11.88;;;10.95;;
77111;SDS011;66064;50.226;14.344;2023-10-09T03:06:55;12.70;;;10.90;;
77111;SDS011;66064;50.226;14.344;2023-10-09T03:09:23;10.45;;;9.45;;
77111;SDS011;66064;50.226;14.344;2023-10-09T03:11:57;12.00;;;10.90;;
77111;SDS011;66064;50.226;14.344;2023-10-09T03:14:36;11.57;;;10.55;;
77111;SDS011;66064;50.226;14.344;2023-10-09T03:17:06;10.50;;;9.55;;
77111;SDS011;66064;50.226;14.344;2023-10-09T03:19:39;11.82;;;10.70;;
77111;SDS011;66064;50.226;14.344;2023-10-09T03:22:09;10.35;;;9.35;;
77111;SDS011;66064;50.226;14.344;2023-10-09T03:24:36;11.35;;;10.45;;
77111;SDS011;66064;50.226;14.344;2023-10-09T03:27:03;13.32;;;12.13;;
77111;SDS011;66064;50.226;14.344;2023-10-09T03:29:30;12.63;;;11.07;;
77111;SDS011;66064;50.226;14.344;2023-10-09T03:31:57;12.30;;;10.98;;
77111;SDS011;66064;50.226;14.344;2023-10-09T03:34:23;12.70;;;11.73;;
77111;SDS011;66064;50.226;14.344;2023-10-09T03:36:49;12.48;;;11.40;;
77111;SDS011;66064;50.226;14.344;2023-10-09T03:39:30;12.20;;;11.10;;
77111;SDS011;66064;50.226;14.344;2023-10-09T03:42:07;11.18;;;10.07;;
77111;SDS011;66064;50.226;14.344;2023-10-09T03:44:45;11.70;;;10.48;;
77111;SDS011;66064;50.226;14.344;2023-10-09T03:47:18;9.77;;;8.77;;
77111;SDS011;66064;50.226;14.344;2023-10-09T03:49:49;10.82;;;9.88;;
77111;SDS011;66064;50.226;14.344;2023-10-09T03:52:19;11.10;;;10.05;;
77111;SDS011;66064;50.226;14.344;2023-10-09T03:54:45;12.95;;;11.85;;
77111;SDS011;66064;50.226;14.344;2023-10-09T03:57:15;10.52;;;9.63;;
77111;SDS011;66064;50.226;14.344;2023-10-09T03:59:46;11.80;;;10.73;;
77111;SDS011;66064;50.226;14.344;2023-10-09T04:02:13;12.77;;;11.15;;
77111;SDS011;66064;50.226;14.344;2023-10-09T04:04:41;12.25;;;11.25;;
77111;SDS011;66064;50.226;14.344;2023-10-09T04:07:13;11.75;;;10.75;;
77111;SDS011;66064;50.226;14.344;2023-10-09T04:09:42;14.63;;;13.27;;
77111;SDS011;66064;50.226;14.344;2023-10-09T04:12:13;14.10;;;12.80;;
77111;SDS011;66064;50.226;14.344;2023-10-09T04:14:46;13.45;;;12.32;;
77111;SDS011;66064;50.226;14.344;2023-10-09T04:17:20;12.05;;;10.85;;
77111;SDS011;66064;50.226;14.344;2023-10-09T04:20:01;13.65;;;12.25;;
77111;SDS011;66064;50.226;14.344;2023-10-09T04:22:54;12.10;;;11.20;;
77111;SDS011;66064;50.226;14.344;2023-10-09T04:25:37;12.90;;;11.43;;
77111;SDS011;66064;50.226;14.344;2023-10-09T04:28:11;10.63;;;9.43;;
77111;SDS011;66064;50.226;14.344;2023-10-09T04:30:45;11.57;;;10.57;;
77111;SDS011;66064;50.226;14.344;2023-10-09T04:33:12;12.25;;;11.15;;
77111;SDS011;66064;50.226;14.344;2023-10-09T04:36:04;11.95;;;10.85;;
77111;SDS011;66064;50.226;14.344;2023-10-09T04:38:49;11.38;;;9.88;;
77111;SDS011;66064;50.226;14.344;2023-10-09T04:41:30;12.50;;;11.20;;
77111;SDS011;66064;50.226;14.344;2023-10-09T04:44:17;10.93;;;7.90;;
77111;SDS011;66064;50.226;14.344;2023-10-09T04:46:45;11.95;;;9.90;;
77111;SDS011;66064;50.226;14.344;2023-10-09T04:49:31;12.35;;;11.25;;
77111;SDS011;66064;50.226;14.344;2023-10-09T04:52:15;12.13;;;11.10;;
77111;SDS011;66064;50.226;14.344;2023-10-09T04:54:54;12.35;;;11.18;;
77111;SDS011;66064;50.226;14.344;2023-10-09T04:57:33;12.13;;;10.88;;
77111;SDS011;66064;50.226;14.344;2023-10-09T05:00:09;13.15;;;10.38;;
77111;SDS011;66064;50.226;14.344;2023-10-09T05:02:55;12.05;;;10.82;;
77111;SDS011;66064;50.226;14.344;2023-10-09T05:05:25;11.52;;;10.20;;
77111;SDS011;66064;50.226;14.344;2023-10-09T05:08:08;12.80;;;11.50;;
77111;SDS011;66064;50.226;14.344;2023-10-09T05:10:47;11.65;;;10.35;;
77111;SDS011;66064;50.226;14.344;2023-10-09T05:13:23;14.18;;;12.82;;
77111;SDS011;66064;50.226;14.344;2023-10-09T05:18:47;13.73;;;10.38;;
77111;SDS011;66064;50.226;14.344;2023-10-09T05:21:38;11.57;;;10.57;;
77111;SDS011;66064;50.226;14.344;2023-10-09T05:24:08;13.75;;;12.45;;
77111;SDS011;66064;50.226;14.344;2023-10-09T05:26:38;12.88;;;11.73;;
77111;SDS011;66064;50.226;14.344;2023-10-09T05:29:30;13.50;;;12.20;;
77111;SDS011;66064;50.226;14.344;2023-10-09T05:32:07;14.10;;;12.90;;
77111;SDS011;66064;50.226;14.344;2023-10-09T05:34:40;12.48;;;11.43;;
77111;SDS011;66064;50.226;14.344;2023-10-09T05:37:29;9.75;;;8.93;;
77111;SDS011;66064;50.226;14.344;2023-10-09T05:40:00;10.90;;;10.10;;
77111;SDS011;66064;50.226;14.344;2023-10-09T05:42:42;9.95;;;9.13;;
77111;SDS011;66064;50.226;14.344;2023-10-09T05:45:09;13.57;;;12.35;;
77111;SDS011;66064;50.226;14.344;2023-10-09T05:47:55;13.93;;;12.27;;
77111;SDS011;66064;50.226;14.344;2023-10-09T05:50:30;15.70;;;12.05;;
77111;SDS011;66064;50.226;14.344;2023-10-09T05:53:00;15.52;;;12.63;;
77111;SDS011;66064;50.226;14.344;2023-10-09T05:55:28;16.08;;;10.75;;
77111;SDS011;66064;50.226;14.344;2023-10-09T05:58:15;16.67;;;13.23;;
77111;SDS011;66064;50.226;14.344;2023-10-09T06:01:00;10.63;;;9.63;;
77111;SDS011;66064;50.226;14.344;2023-10-09T06:03:44;11.93;;;10.43;;
77111;SDS011;66064;50.226;14.344;2023-10-09T06:06:30;15.95;;;12.10;;
77111;SDS011;66064;50.226;14.344;2023-10-09T06:09:03;15.73;;;10.80;;
77111;SDS011;66064;50.226;14.344;2023-10-09T06:14:40;10.65;;;9.63;;
77111;SDS011;66064;50.226;14.344;2023-10-09T06:17:15;12.43;;;11.32;;
77111;SDS011;66064;50.226;14.344;2023-10-09T06:19:53;13.90;;;12.55;;
77111;SDS011;66064;50.226;14.344;2023-10-09T06:22:25;11.63;;;10.52;;
77111;SDS011;66064;50.226;14.344;2023-10-09T06:25:09;13.57;;;12.32;;
77111;SDS011;66064;50.226;14.344;2023-10-09T06:27:37;10.90;;;10.10;;
77111;SDS011;66064;50.226;14.344;2023-10-09T06:30:08;10.10;;;9.20;;
77111;SDS011;66064;50.226;14.344;2023-10-09T06:32:38;11.32;;;10.45;;
77111;SDS011;66064;50.226;14.344;2023-10-09T06:35:20;11.35;;;10.30;;
77111;SDS011;66064;50.226;14.344;2023-10-09T06:37:59;10.13;;;9.32;;
77111;SDS011;66064;50.226;14.344;2023-10-09T06:40:29;12.18;;;11.07;;
77111;SDS011;66064;50.226;14.344;2023-10-09T06:43:05;12.68;;;11.48;;
77111;SDS011;66064;50.226;14.344;2023-10-09T06:45:53;14.40;;;11.05;;
77111;SDS011;66064;50.226;14.344;2023-10-09T06:48:45;12.00;;;11.05;;
77111;SDS011;66064;50.226;14.344;2023-10-09T06:51:12;14.82;;;12.57;;
77111;SDS011;66064;50.226;14.344;2023-10-09T06:53:51;12.45;;;11.30;;
77111;SDS011;66064;50.226;14.344;2023-10-09T06:56:24;12.63;;;11.15;;
77111;SDS011;66064;50.226;14.344;2023-10-09T06:59:03;13.57;;;12.32;;
77111;SDS011;66064;50.226;14.344;2023-10-09T07:01:41;11.55;;;10.45;;
77111;SDS011;66064;50.226;14.344;2023-10-09T07:04:13;13.35;;;11.23;;
77111;SDS011;66064;50.226;14.344;2023-10-09T07:07:05;14.93;;;12.93;;
77111;SDS011;66064;50.226;14.344;2023-10-09T07:09:47;15.05;;;12.25;;
77111;SDS011;66064;50.226;14.344;2023-10-09T07:12:32;15.00;;;12.20;;
77111;SDS011;66064;50.226;14.344;2023-10-09T07:15:02;14.48;;;13.05;;
77111;SDS011;66064;50.226;14.344;2023-10-09T07:17:30;13.48;;;12.18;;
77111;SDS011;66064;50.226;14.344;2023-10-09T07:20:00;13.82;;;11.85;;
77111;SDS011;66064;50.226;14.344;2023-10-09T07:22:40;12.05;;;9.52;;
77111;SDS011;66064;50.226;14.344;2023-10-09T07:25:22;13.70;;;12.30;;
77111;SDS011;66064;50.226;14.344;2023-10-09T07:28:08;15.35;;;12.32;;
77111;SDS011;66064;50.226;14.344;2023-10-09T07:30:55;15.18;;;13.00;;
77111;SDS011;66064;50.226;14.344;2023-10-09T07:33:23;14.77;;;13.15;;
77111;SDS011;66064;50.226;14.344;2023-10-09T07:36:10;15.00;;;13.48;;
77111;SDS011;66064;50.226;14.344;2023-10-09T07:38:38;15.13;;;12.32;;
77111;SDS011;66064;50.226;14.344;2023-10-09T07:41:04;18.98;;;13.88;;
77111;SDS011;66064;50.226;14.344;2023-10-09T07:43:33;13.63;;;11.18;;
77111;SDS011;66064;50.226;14.344;2023-10-09T07:46:05;14.27;;;12.25;;
77111;SDS011;66064;50.226;14.344;2023-10-09T07:48:51;14.90;;;11.90;;
77111;SDS011;66064;50.226;14.344;2023-10-09T07:51:20;12.98;;;11.73;;
77111;SDS011;66064;50.226;14.344;2023-10-09T07:53:52;14.52;;;12.77;;
77111;SDS011;66064;50.226;14.344;2023-10-09T07:56:38;15.35;;;12.73;;
77111;SDS011;66064;50.226;14.344;2023-10-09T07:59:11;19.15;;;13.50;;
77111;SDS011;66064;50.226;14.344;2023-10-09T08:01:44;15.38;;;13.35;;
77111;SDS011;66064;50.226;14.344;2023-10-09T08:04:21;17.88;;;14.85;;
77111;SDS011;66064;50.226;14.344;2023-10-09T08:07:14;16.23;;;14.52;;
77111;SDS011;66064;50.226;14.344;2023-10-09T08:10:03;15.23;;;13.60;;
77111;SDS011;66064;50.226;14.344;2023-10-09T08:12:40;18.10;;;12.63;;
77111;SDS011;66064;50.226;14.344;2023-10-09T08:15:10;16.25;;;13.45;;
77111;SDS011;66064;50.226;14.344;2023-10-09T08:17:51;13.95;;;11.82;;
77111;SDS011;66064;50.226;14.344;2023-10-09T08:20:38;15.35;;;12.32;;
77111;SDS011;66064;50.226;14.344;2023-10-09T08:23:24;15.98;;;14.23;;
77111;SDS011;66064;50.226;14.344;2023-10-09T08:28:39;14.90;;;12.32;;
77111;SDS011;66064;50.226;14.344;2023-10-09T08:31:13;15.80;;;12.63;;
77111;SDS011;66064;50.226;14.344;2023-10-09T08:34:00;14.07;;;12.60;;
77111;SDS011;66064;50.226;14.344;2023-10-09T08:36:27;18.50;;;13.52;;
77111;SDS011;66064;50.226;14.344;2023-10-09T08:39:02;16.55;;;12.32;;
77111;SDS011;66064;50.226;14.344;2023-10-09T08:41:43;15.40;;;13.93;;
77111;SDS011;66064;50.226;14.344;2023-10-09T08:44:09;15.27;;;13.73;;
77111;SDS011;66064;50.226;14.344;2023-10-09T08:46:40;15.15;;;13.18;;
77111;SDS011;66064;50.226;14.344;2023-10-09T08:49:09;15.35;;;13.60;;
77111;SDS011;66064;50.226;14.344;2023-10-09T08:51:36;16.77;;;14.85;;
77111;SDS011;66064;50.226;14.344;2023-10-09T08:54:04;15.02;;;13.43;;
77111;SDS011;66064;50.226;14.344;2023-10-09T08:56:37;19.50;;;13.73;;
77111;SDS011;66064;50.226;14.344;2023-10-09T08:59:05;14.93;;;13.43;;
77111;SDS011;66064;50.226;14.344;2023-10-09T09:01:32;14.43;;;12.98;;
77111;SDS011;66064;50.226;14.344;2023-10-09T09:04:00;15.13;;;13.50;;
77111;SDS011;66064;50.226;14.344;2023-10-09T09:06:35;15.13;;;11.77;;
77111;SDS011;66064;50.226;14.344;2023-10-09T09:09:12;17.17;;;14.20;;
77111;SDS011;66064;50.226;14.344;2023-10-09T09:11:41;14.02;;;12.25;;
77111;SDS011;66064;50.226;14.344;2023-10-09T09:14:14;15.70;;;12.30;;
77111;SDS011;66064;50.226;14.344;2023-10-09T09:16:49;12.95;;;11.07;;
77111;SDS011;66064;50.226;14.344;2023-10-09T09:19:15;14.95;;;12.85;;
77111;SDS011;66064;50.226;14.344;2023-10-09T09:21:51;16.17;;;13.55;;
77111;SDS011;66064;50.226;14.344;2023-10-09T09:24:25;14.77;;;10.73;;
77111;SDS011;66064;50.226;14.344;2023-10-09T09:26:53;13.90;;;12.57;;
77111;SDS011;66064;50.226;14.344;2023-10-09T09:32:06;13.38;;;12.07;;
77111;SDS011;66064;50.226;14.344;2023-10-09T09:34:44;14.30;;;12.80;;
77111;SDS011;66064;50.226;14.344;2023-10-09T09:37:23;15.82;;;12.13;;
77111;SDS011;66064;50.226;14.344;2023-10-09T09:40:20;16.17;;;12.27;;
77111;SDS011;66064;50.226;14.344;2023-10-09T09:42:59;13.38;;;12.00;;
77111;SDS011;66064;50.226;14.344;2023-10-09T09:45:34;13.77;;;11.98;;
77111;SDS011;66064;50.226;14.344;2023-10-09T09:48:05;15.93;;;13.50;;
77111;SDS011;66064;50.226;14.344;2023-10-09T09:50:32;16.17;;;13.10;;
77111;SDS011;66064;50.226;14.344;2023-10-09T09:52:59;15.63;;;12.65;;
77111;SDS011;66064;50.226;14.344;2023-10-09T09:55:32;16.75;;;14.90;;
77111;SDS011;66064;50.226;14.344;2023-10-09T09:58:01;16.48;;;14.25;;
77111;SDS011;66064;50.226;14.344;2023-10-09T10:00:34;18.73;;;13.77;;
77111;SDS011;66064;50.226;14.344;2023-10-09T10:03:16;15.98;;;14.10;;
77111;SDS011;66064;50.226;14.344;2023-10-09T10:05:47;15.25;;;13.65;;
77111;SDS011;66064;50.226;14.344;2023-10-09T10:08:19;16.23;;;14.52;;
77111;SDS011;66064;50.226;14.344;2023-10-09T10:10:48;14.10;;;12.60;;
77111;SDS011;66064;50.226;14.344;2023-10-09T10:16:12;17.55;;;14.90;;
77111;SDS011;66064;50.226;14.344;2023-10-09T10:18:55;17.70;;;14.32;;
77111;SDS011;66064;50.226;14.344;2023-10-09T10:21:26;17.50;;;13.00;;
77111;SDS011;66064;50.226;14.344;2023-10-09T10:29:43;17.40;;;15.57;;
77111;SDS011;66064;50.226;14.344;2023-10-09T10:32:12;17.88;;;15.52;;
77111;SDS011;66064;50.226;14.344;2023-10-09T10:37:33;18.17;;;15.65;;
77111;SDS011;66064;50.226;14.344;2023-10-09T10:40:04;24.17;;;17.77;;
77111;SDS011;66064;50.226;14.344;2023-10-09T10:45:35;16.95;;;14.13;;
77111;SDS011;66064;50.226;14.344;2023-10-09T10:48:12;21.73;;;13.57;;
77111;SDS011;66064;50.226;14.344;2023-10-09T10:51:01;18.65;;;16.45;;
77111;SDS011;66064;50.226;14.344;2023-10-09T10:53:27;20.27;;;16.27;;
77111;SDS011;66064;50.226;14.344;2023-10-09T10:56:01;21.63;;;15.32;;
77111;SDS011;66064;50.226;14.344;2023-10-09T10:58:40;21.00;;;15.98;;
77111;SDS011;66064;50.226;14.344;2023-10-09T11:01:20;20.88;;;16.25;;
77111;SDS011;66064;50.226;14.344;2023-10-09T11:03:51;15.80;;;12.35;;
77111;SDS011;66064;50.226;14.344;2023-10-09T11:06:27;18.80;;;15.38;;
77111;SDS011;66064;50.226;14.344;2023-10-09T11:09:05;23.98;;;16.85;;
77111;SDS011;66064;50.226;14.344;2023-10-09T11:14:36;20.42;;;16.58;;
77111;SDS011;66064;50.226;14.344;2023-10-09T11:17:16;18.80;;;15.93;;
77111;SDS011;66064;50.226;14.344;2023-10-09T11:19:51;19.55;;;15.95;;
77111;SDS011;66064;50.226;14.344;2023-10-09T11:22:18;21.98;;;15.90;;
77111;SDS011;66064;50.226;14.344;2023-10-09T11:24:54;19.55;;;15.73;;
77111;SDS011;66064;50.226;14.344;2023-10-09T11:27:39;17.38;;;15.60;;
77111;SDS011;66064;50.226;14.344;2023-10-09T11:30:17;17.92;;;14.23;;
77111;SDS011;66064;50.226;14.344;2023-10-09T11:33:04;15.45;;;13.07;;
77111;SDS011;66064;50.226;14.344;2023-10-09T11:35:33;11.73;;;9.75;;
77111;SDS011;66064;50.226;14.344;2023-10-09T11:38:00;10.32;;;7.38;;
77111;SDS011;66064;50.226;14.344;2023-10-09T11:40:46;10.90;;;9.75;;
77111;SDS011;66064;50.226;14.344;2023-10-09T11:43:19;9.63;;;8.68;;
77111;SDS011;66064;50.226;14.344;2023-10-09T11:46:12;10.65;;;8.50;;
77111;SDS011;66064;50.226;14.344;2023-10-09T11:49:05;10.55;;;9.27;;
77111;SDS011;66064;50.226;14.344;2023-10-09T11:51:53;10.45;;;8.40;;
77111;SDS011;66064;50.226;14.344;2023-10-09T11:54:36;11.15;;;10.05;;
77111;SDS011;66064;50.226;14.344;2023-10-09T11:57:02;10.77;;;8.82;;
77111;SDS011;66064;50.226;14.344;2023-10-09T11:59:32;12.73;;;8.68;;
77111;SDS011;66064;50.226;14.344;2023-10-09T12:02:06;11.02;;;9.93;;
77111;SDS011;66064;50.226;14.344;2023-10-09T12:04:37;11.43;;;10.05;;
77111;SDS011;66064;50.226;14.344;2023-10-09T12:07:08;12.00;;;9.40;;
77111;SDS011;66064;50.226;14.344;2023-10-09T12:09:37;9.68;;;8.63;;
77111;SDS011;66064;50.226;14.344;2023-10-09T12:12:04;12.63;;;9.73;;
77111;SDS011;66064;50.226;14.344;2023-10-09T12:14:31;32.55;;;21.52;;
77111;SDS011;66064;50.226;14.344;2023-10-09T12:17:01;16.92;;;11.32;;
77111;SDS011;66064;50.226;14.344;2023-10-09T12:19:34;12.45;;;9.18;;
77111;SDS011;66064;50.226;14.344;2023-10-09T12:22:07;11.38;;;9.52;;
77111;SDS011;66064;50.226;14.344;2023-10-09T12:24:41;13.30;;;8.95;;
77111;SDS011;66064;50.226;14.344;2023-10-09T12:27:09;14.73;;;10.15;;
77111;SDS011;66064;50.226;14.344;2023-10-09T12:29:38;14.85;;;9.75;;
77111;SDS011;66064;50.226;14.344;2023-10-09T12:32:10;14.45;;;11.27;;
77111;SDS011;66064;50.226;14.344;2023-10-09T12:34:36;15.57;;;10.75;;
77111;SDS011;66064;50.226;14.344;2023-10-09T12:37:04;12.45;;;9.55;;
77111;SDS011;66064;50.226;14.344;2023-10-09T12:39:31;14.90;;;10.15;;
77111;SDS011;66064;50.226;14.344;2023-10-09T12:42:06;17.55;;;15.00;;
77111;SDS011;66064;50.226;14.344;2023-10-09T12:44:32;17.42;;;13.15;;
77111;SDS011;66064;50.226;14.344;2023-10-09T12:47:05;17.35;;;15.07;;
77111;SDS011;66064;50.226;14.344;2023-10-09T12:49:31;13.30;;;11.90;;
77111;SDS011;66064;50.226;14.344;2023-10-09T12:51:58;12.35;;;10.88;;
77111;SDS011;66064;50.226;14.344;2023-10-09T12:54:25;16.10;;;9.98;;
77111;SDS011;66064;50.226;14.344;2023-10-09T12:56:56;12.45;;;8.65;;
77111;SDS011;66064;50.226;14.344;2023-10-09T12:59:23;12.02;;;10.27;;
77111;SDS011;66064;50.226;14.344;2023-10-09T13:01:50;12.43;;;10.18;;
77111;SDS011;66064;50.226;14.344;2023-10-09T13:04:23;10.98;;;9.48;;
77111;SDS011;66064;50.226;14.344;2023-10-09T13:06:59;12.60;;;9.90;;
77111;SDS011;66064;50.226;14.344;2023-10-09T13:09:30;9.65;;;7.90;;
77111;SDS011;66064;50.226;14.344;2023-10-09T13:12:09;14.02;;;7.80;;
77111;SDS011;66064;50.226;14.344;2023-10-09T13:17:11;10.25;;;9.23;;
77111;SDS011;66064;50.226;14.344;2023-10-09T13:19:37;12.05;;;10.80;;
77111;SDS011;66064;50.226;14.344;2023-10-09T13:22:03;12.10;;;9.20;;
77111;SDS011;66064;50.226;14.344;2023-10-09T13:24:38;11.82;;;10.25;;
77111;SDS011;66064;50.226;14.344;2023-10-09T13:27:06;12.27;;;9.52;;
77111;SDS011;66064;50.226;14.344;2023-10-09T13:29:38;12.25;;;8.23;;
77111;SDS011;66064;50.226;14.344;2023-10-09T13:32:07;12.75;;;9.82;;
77111;SDS011;66064;50.226;14.344;2023-10-09T13:34:41;10.20;;;8.07;;
77111;SDS011;66064;50.226;14.344;2023-10-09T13:37:10;11.88;;;9.02;;
77111;SDS011;66064;50.226;14.344;2023-10-09T13:39:40;9.88;;;8.70;;
77111;SDS011;66064;50.226;14.344;2023-10-09T13:42:18;12.45;;;8.32;;
77111;SDS011;66064;50.226;14.344;2023-10-09T13:44:44;13.38;;;11.45;;
77111;SDS011;66064;50.226;14.344;2023-10-09T13:47:11;10.90;;;9.38;;
77111;SDS011;66064;50.226;14.344;2023-10-09T13:49:47;11.18;;;9.70;;
77111;SDS011;66064;50.226;14.344;2023-10-09T13:52:18;12.60;;;9.90;;
77111;SDS011;66064;50.226;14.344;2023-10-09T13:54:44;14.93;;;10.48;;
77111;SDS011;66064;50.226;14.344;2023-10-09T13:57:15;15.10;;;9.32;;
77111;SDS011;66064;50.226;14.344;2023-10-09T13:59:42;13.30;;;8.38;;
77111;SDS011;66064;50.226;14.344;2023-10-09T14:02:17;11.38;;;9.25;;
77111;SDS011;66064;50.226;14.344;2023-10-09T14:04:44;11.50;;;9.15;;
77111;SDS011;66064;50.226;14.344;2023-10-09T14:07:12;14.60;;;10.65;;
77111;SDS011;66064;50.226;14.344;2023-10-09T14:09:43;10.55;;;8.93;;
77111;SDS011;66064;50.226;14.344;2023-10-09T14:12:09;11.55;;;10.35;;
77111;SDS011;66064;50.226;14.344;2023-10-09T14:14:36;12.27;;;9.82;;
77111;SDS011;66064;50.226;14.344;2023-10-09T14:17:06;10.30;;;7.93;;
77111;SDS011;66064;50.226;14.344;2023-10-09T14:19:43;11.95;;;9.30;;
77111;SDS011;66064;50.226;14.344;2023-10-09T14:22:23;17.08;;;9.13;;
77111;SDS011;66064;50.226;14.344;2023-10-09T14:24:53;10.38;;;9.32;;
77111;SDS011;66064;50.226;14.344;2023-10-09T14:27:24;12.40;;;10.05;;
77111;SDS011;66064;50.226;14.344;2023-10-09T14:29:54;13.35;;;8.07;;
77111;SDS011;66064;50.226;14.344;2023-10-09T14:32:22;10.43;;;8.40;;
77111;SDS011;66064;50.226;14.344;2023-10-09T14:34:59;13.82;;;11.75;;
77111;SDS011;66064;50.226;14.344;2023-10-09T14:37:34;10.10;;;9.10;;
77111;SDS011;66064;50.226;14.344;2023-10-09T14:40:02;12.15;;;10.95;;
77111;SDS011;66064;50.226;14.344;2023-10-09T14:42:29;11.73;;;10.18;;
77111;SDS011;66064;50.226;14.344;2023-10-09T14:44:55;13.18;;;11.07;;
77111;SDS011;66064;50.226;14.344;2023-10-09T14:47:22;11.73;;;9.95;;
77111;SDS011;66064;50.226;14.344;2023-10-09T14:49:53;13.73;;;11.40;;
77111;SDS011;66064;50.226;14.344;2023-10-09T14:52:34;11.93;;;10.27;;
77111;SDS011;66064;50.226;14.344;2023-10-09T14:55:07;11.23;;;9.80;;
77111;SDS011;66064;50.226;14.344;2023-10-09T14:57:42;10.82;;;9.73;;
77111;SDS011;66064;50.226;14.344;2023-10-09T15:00:16;11.80;;;10.20;;
77111;SDS011;66064;50.226;14.344;2023-10-09T15:02:51;11.68;;;9.90;;
77111;SDS011;66064;50.226;14.344;2023-10-09T15:05:22;9.68;;;8.68;;
77111;SDS011;66064;50.226;14.344;2023-10-09T15:08:02;11.35;;;10.05;;
77111;SDS011;66064;50.226;14.344;2023-10-09T15:10:48;10.30;;;9.10;;
77111;SDS011;66064;50.226;14.344;2023-10-09T15:13:28;12.23;;;8.63;;
77111;SDS011;66064;50.226;14.344;2023-10-09T15:15:59;12.45;;;11.05;;
77111;SDS011;66064;50.226;14.344;2023-10-09T15:18:32;13.93;;;9.50;;
77111;SDS011;66064;50.226;14.344;2023-10-09T15:21:05;11.75;;;10.60;;
77111;SDS011;66064;50.226;14.344;2023-10-09T15:23:34;11.70;;;10.60;;
77111;SDS011;66064;50.226;14.344;2023-10-09T15:26:02;14.60;;;10.57;;
77111;SDS011;66064;50.226;14.344;2023-10-09T15:28:28;11.27;;;9.70;;
77111;SDS011;66064;50.226;14.344;2023-10-09T15:30:58;16.40;;;10.00;;